sensor_id;sensor_type;location;lat;lon;timestamp;P1;durP1;ratioP1;P2;durP2;ratioP2
30080;SDS011;16902;50.816;12.828;2022-07-15T00:03:51;2.17;;;1.80;;
30080;SDS011;16902;50.816;12.828;2022-07-15T00:08:53;3.95;;;1.92;;
30080;SDS011;16902;50.816;12.828;2022-07-15T00:13:56;2.55;;;2.15;;
30080;SDS011;16902;50.816;12.828;2022-07-15T00:19:03;3.13;;;1.90;;
30080;SDS011;16902;50.816;12.828;2022-07-15T00:24:05;3.00;;;1.75;;
30080;SDS011;16902;50.816;12.828;2022-07-15T00:29:07;3.28;;;1.70;;
30080;SDS011;16902;50.816;12.828;2022-07-15T00:34:09;2.25;;;1.92;;
30080;SDS011;16902;50.816;12.828;2022-07-15T00:39:11;2.10;;;2.00;;
30080;SDS011;16902;50.816;12.828;2022-07-15T00:44:13;4.28;;;1.88;;
30080;SDS011;16902;50.816;12.828;2022-07-15T00:49:15;2.55;;;2.20;;
30080;SDS011;16902;50.816;12.828;2022-07-15T00:54:19;2.10;;;1.95;;
30080;SDS011;16902;50.816;12.828;2022-07-15T00:59:27;3.03;;;1.90;;
30080;SDS011;16902;50.816;12.828;2022-07-15T01:04:32;3.05;;;1.80;;
30080;SDS011;16902;50.816;12.828;2022-07-15T01:09:35;1.90;;;1.75;;
30080;SDS011;16902;50.816;12.828;2022-07-15T01:14:37;5.95;;;2.17;;
30080;SDS011;16902;50.816;12.828;2022-07-15T01:19:40;2.25;;;2.00;;
30080;SDS011;16902;50.816;12.828;2022-07-15T01:24:43;4.82;;;2.05;;
30080;SDS011;16902;50.816;12.828;2022-07-15T01:29:52;3.05;;;1.92;;
30080;SDS011;16902;50.816;12.828;2022-07-15T01:34:57;1.90;;;1.80;;
30080;SDS011;16902;50.816;12.828;2022-07-15T01:40:01;2.08;;;1.88;;
30080;SDS011;16902;50.816;12.828;2022-07-15T01:45:04;5.57;;;2.75;;
30080;SDS011;16902;50.816;12.828;2022-07-15T01:50:07;6.18;;;2.20;;
30080;SDS011;16902;50.816;12.828;2022-07-15T01:55:30;2.53;;;2.33;;
30080;SDS011;16902;50.816;12.828;2022-07-15T02:00:33;2.78;;;2.58;;
30080;SDS011;16902;50.816;12.828;2022-07-15T02:05:35;2.97;;;2.42;;
30080;SDS011;16902;50.816;12.828;2022-07-15T02:10:37;3.35;;;2.30;;
30080;SDS011;16902;50.816;12.828;2022-07-15T02:15:46;5.82;;;2.40;;
30080;SDS011;16902;50.816;12.828;2022-07-15T02:20:48;5.80;;;2.95;;
30080;SDS011;16902;50.816;12.828;2022-07-15T02:25:50;2.95;;;2.65;;
30080;SDS011;16902;50.816;12.828;2022-07-15T02:30:57;2.83;;;2.20;;
30080;SDS011;16902;50.816;12.828;2022-07-15T02:36:00;4.25;;;2.90;;
30080;SDS011;16902;50.816;12.828;2022-07-15T02:41:03;3.22;;;2.55;;
30080;SDS011;16902;50.816;12.828;2022-07-15T02:46:08;3.22;;;2.85;;
30080;SDS011;16902;50.816;12.828;2022-07-15T02:51:14;3.45;;;2.85;;
30080;SDS011;16902;50.816;12.828;2022-07-15T02:56:17;4.80;;;3.60;;
30080;SDS011;16902;50.816;12.828;2022-07-15T03:01:19;5.50;;;3.78;;
30080;SDS011;16902;50.816;12.828;2022-07-15T03:06:23;6.00;;;3.83;;
30080;SDS011;16902;50.816;12.828;2022-07-15T03:11:25;4.35;;;3.60;;
30080;SDS011;16902;50.816;12.828;2022-07-15T03:16:27;5.05;;;3.90;;
30080;SDS011;16902;50.816;12.828;2022-07-15T03:21:29;6.03;;;3.80;;
30080;SDS011;16902;50.816;12.828;2022-07-15T03:26:31;4.10;;;3.70;;
30080;SDS011;16902;50.816;12.828;2022-07-15T03:31:33;4.25;;;3.83;;
30080;SDS011;16902;50.816;12.828;2022-07-15T03:36:39;5.65;;;4.15;;
30080;SDS011;16902;50.816;12.828;2022-07-15T03:41:41;7.10;;;4.15;;
30080;SDS011;16902;50.816;12.828;2022-07-15T03:46:45;5.43;;;3.60;;
30080;SDS011;16902;50.816;12.828;2022-07-15T03:51:48;3.55;;;3.25;;
30080;SDS011;16902;50.816;12.828;2022-07-15T03:56:50;4.32;;;3.67;;
30080;SDS011;16902;50.816;12.828;2022-07-15T04:01:53;3.63;;;3.28;;
30080;SDS011;16902;50.816;12.828;2022-07-15T04:06:55;3.42;;;2.90;;
30080;SDS011;16902;50.816;12.828;2022-07-15T04:11:57;3.85;;;2.72;;
30080;SDS011;16902;50.816;12.828;2022-07-15T04:17:00;5.40;;;2.30;;
30080;SDS011;16902;50.816;12.828;2022-07-15T04:22:14;4.03;;;2.15;;
30080;SDS011;16902;50.816;12.828;2022-07-15T04:27:21;3.85;;;2.67;;
30080;SDS011;16902;50.816;12.828;2022-07-15T04:32:24;3.65;;;1.98;;
30080;SDS011;16902;50.816;12.828;2022-07-15T04:37:29;4.90;;;2.60;;
30080;SDS011;16902;50.816;12.828;2022-07-15T04:42:32;5.35;;;2.78;;
30080;SDS011;16902;50.816;12.828;2022-07-15T04:47:34;4.32;;;2.85;;
30080;SDS011;16902;50.816;12.828;2022-07-15T04:52:44;6.78;;;2.95;;
30080;SDS011;16902;50.816;12.828;2022-07-15T04:57:47;5.75;;;2.70;;
30080;SDS011;16902;50.816;12.828;2022-07-15T05:02:51;4.88;;;2.60;;
30080;SDS011;16902;50.816;12.828;2022-07-15T05:07:53;4.07;;;2.67;;
30080;SDS011;16902;50.816;12.828;2022-07-15T05:12:55;5.65;;;2.50;;
30080;SDS011;16902;50.816;12.828;2022-07-15T05:17:57;3.78;;;2.47;;
30080;SDS011;16902;50.816;12.828;2022-07-15T05:23:00;3.45;;;2.10;;
30080;SDS011;16902;50.816;12.828;2022-07-15T05:28:07;4.72;;;2.42;;
30080;SDS011;16902;50.816;12.828;2022-07-15T05:33:10;2.22;;;2.00;;
30080;SDS011;16902;50.816;12.828;2022-07-15T05:38:12;4.38;;;2.25;;
30080;SDS011;16902;50.816;12.828;2022-07-15T05:43:16;5.65;;;2.58;;
30080;SDS011;16902;50.816;12.828;2022-07-15T05:48:19;5.53;;;2.20;;
30080;SDS011;16902;50.816;12.828;2022-07-15T05:53:25;3.00;;;1.98;;
30080;SDS011;16902;50.816;12.828;2022-07-15T05:58:27;5.57;;;2.00;;
30080;SDS011;16902;50.816;12.828;2022-07-15T06:03:30;4.15;;;2.28;;
30080;SDS011;16902;50.816;12.828;2022-07-15T06:08:33;4.18;;;2.03;;
30080;SDS011;16902;50.816;12.828;2022-07-15T06:13:36;3.67;;;1.92;;
30080;SDS011;16902;50.816;12.828;2022-07-15T06:18:38;5.32;;;1.95;;
30080;SDS011;16902;50.816;12.828;2022-07-15T06:23:40;2.75;;;1.75;;
30080;SDS011;16902;50.816;12.828;2022-07-15T06:28:42;5.47;;;1.92;;
30080;SDS011;16902;50.816;12.828;2022-07-15T06:33:54;3.03;;;1.92;;
30080;SDS011;16902;50.816;12.828;2022-07-15T06:38:56;5.72;;;2.00;;
30080;SDS011;16902;50.816;12.828;2022-07-15T06:43:59;3.60;;;1.77;;
30080;SDS011;16902;50.816;12.828;2022-07-15T06:49:23;3.40;;;1.50;;
30080;SDS011;16902;50.816;12.828;2022-07-15T06:54:27;3.90;;;1.60;;
30080;SDS011;16902;50.816;12.828;2022-07-15T06:59:29;3.85;;;1.55;;
30080;SDS011;16902;50.816;12.828;2022-07-15T07:04:31;5.88;;;1.65;;
30080;SDS011;16902;50.816;12.828;2022-07-15T07:09:33;3.92;;;1.77;;
30080;SDS011;16902;50.816;12.828;2022-07-15T07:14:35;3.35;;;1.60;;
30080;SDS011;16902;50.816;12.828;2022-07-15T07:19:38;3.00;;;1.83;;
30080;SDS011;16902;50.816;12.828;2022-07-15T07:24:40;3.40;;;1.67;;
30080;SDS011;16902;50.816;12.828;2022-07-15T07:29:42;2.45;;;1.70;;
30080;SDS011;16902;50.816;12.828;2022-07-15T07:34:44;2.92;;;1.65;;
30080;SDS011;16902;50.816;12.828;2022-07-15T07:39:46;3.97;;;1.48;;
30080;SDS011;16902;50.816;12.828;2022-07-15T07:44:48;4.88;;;1.80;;
30080;SDS011;16902;50.816;12.828;2022-07-15T07:49:49;3.05;;;1.40;;
30080;SDS011;16902;50.816;12.828;2022-07-15T07:54:52;3.88;;;1.42;;
30080;SDS011;16902;50.816;12.828;2022-07-15T07:59:54;5.60;;;2.08;;
30080;SDS011;16902;50.816;12.828;2022-07-15T08:04:58;2.35;;;2.00;;
30080;SDS011;16902;50.816;12.828;2022-07-15T08:10:03;5.18;;;1.98;;
30080;SDS011;16902;50.816;12.828;2022-07-15T08:15:07;4.43;;;1.70;;
30080;SDS011;16902;50.816;12.828;2022-07-15T08:20:14;2.78;;;1.77;;
30080;SDS011;16902;50.816;12.828;2022-07-15T08:25:16;2.97;;;1.58;;
30080;SDS011;16902;50.816;12.828;2022-07-15T08:30:18;7.35;;;2.05;;
30080;SDS011;16902;50.816;12.828;2022-07-15T08:35:20;5.90;;;1.80;;
30080;SDS011;16902;50.816;12.828;2022-07-15T08:40:24;2.05;;;1.83;;
30080;SDS011;16902;50.816;12.828;2022-07-15T08:45:27;2.83;;;1.75;;
30080;SDS011;16902;50.816;12.828;2022-07-15T08:50:30;3.50;;;1.55;;
30080;SDS011;16902;50.816;12.828;2022-07-15T08:55:33;1.42;;;1.20;;
30080;SDS011;16902;50.816;12.828;2022-07-15T09:00:35;1.75;;;1.55;;
30080;SDS011;16902;50.816;12.828;2022-07-15T09:05:37;3.03;;;1.58;;
30080;SDS011;16902;50.816;12.828;2022-07-15T09:15:51;3.13;;;1.65;;
30080;SDS011;16902;50.816;12.828;2022-07-15T09:20:54;3.78;;;1.52;;
30080;SDS011;16902;50.816;12.828;2022-07-15T09:36:53;2.58;;;1.90;;
30080;SDS011;16902;50.816;12.828;2022-07-15T09:41:56;2.67;;;1.65;;
30080;SDS011;16902;50.816;12.828;2022-07-15T09:47:09;4.28;;;2.10;;
30080;SDS011;16902;50.816;12.828;2022-07-15T09:52:18;7.72;;;2.03;;
30080;SDS011;16902;50.816;12.828;2022-07-15T09:57:20;4.50;;;1.55;;
30080;SDS011;16902;50.816;12.828;2022-07-15T10:02:23;5.32;;;2.20;;
30080;SDS011;16902;50.816;12.828;2022-07-15T10:07:28;3.83;;;2.03;;
30080;SDS011;16902;50.816;12.828;2022-07-15T10:12:32;3.55;;;1.73;;
30080;SDS011;16902;50.816;12.828;2022-07-15T10:18:06;3.58;;;1.70;;
30080;SDS011;16902;50.816;12.828;2022-07-15T10:28:55;3.75;;;2.10;;
30080;SDS011;16902;50.816;12.828;2022-07-15T10:39:05;4.32;;;1.92;;
30080;SDS011;16902;50.816;12.828;2022-07-15T10:44:10;3.53;;;2.00;;
30080;SDS011;16902;50.816;12.828;2022-07-15T10:59:20;2.70;;;1.90;;
30080;SDS011;16902;50.816;12.828;2022-07-15T11:04:25;2.88;;;1.70;;
30080;SDS011;16902;50.816;12.828;2022-07-15T11:15:14;3.10;;;1.92;;
30080;SDS011;16902;50.816;12.828;2022-07-15T11:20:20;3.25;;;1.90;;
30080;SDS011;16902;50.816;12.828;2022-07-15T11:25:40;5.57;;;1.92;;
30080;SDS011;16902;50.816;12.828;2022-07-15T11:35:56;4.45;;;2.05;;
30080;SDS011;16902;50.816;12.828;2022-07-15T11:41:01;4.03;;;1.90;;
30080;SDS011;16902;50.816;12.828;2022-07-15T11:46:30;2.80;;;1.50;;
30080;SDS011;16902;50.816;12.828;2022-07-15T11:51:33;1.75;;;1.38;;
30080;SDS011;16902;50.816;12.828;2022-07-15T11:56:34;3.38;;;1.80;;
30080;SDS011;16902;50.816;12.828;2022-07-15T12:01:36;4.53;;;1.50;;
30080;SDS011;16902;50.816;12.828;2022-07-15T12:06:38;3.15;;;1.88;;
30080;SDS011;16902;50.816;12.828;2022-07-15T12:11:40;1.92;;;1.73;;
30080;SDS011;16902;50.816;12.828;2022-07-15T12:16:43;2.72;;;1.70;;
30080;SDS011;16902;50.816;12.828;2022-07-15T12:21:58;2.63;;;1.90;;
30080;SDS011;16902;50.816;12.828;2022-07-15T12:27:13;2.78;;;1.70;;
30080;SDS011;16902;50.816;12.828;2022-07-15T12:32:15;5.35;;;1.98;;
30080;SDS011;16902;50.816;12.828;2022-07-15T12:37:18;3.75;;;2.20;;
30080;SDS011;16902;50.816;12.828;2022-07-15T12:42:22;3.65;;;1.90;;
30080;SDS011;16902;50.816;12.828;2022-07-15T12:47:24;2.67;;;1.80;;
30080;SDS011;16902;50.816;12.828;2022-07-15T12:52:31;2.22;;;1.60;;
30080;SDS011;16902;50.816;12.828;2022-07-15T12:57:37;2.65;;;1.77;;
30080;SDS011;16902;50.816;12.828;2022-07-15T13:08:17;3.15;;;1.63;;
30080;SDS011;16902;50.816;12.828;2022-07-15T13:13:22;3.50;;;1.50;;
30080;SDS011;16902;50.816;12.828;2022-07-15T13:18:25;4.18;;;1.77;;
30080;SDS011;16902;50.816;12.828;2022-07-15T13:23:28;1.88;;;1.20;;
30080;SDS011;16902;50.816;12.828;2022-07-15T13:28:30;1.63;;;1.30;;
30080;SDS011;16902;50.816;12.828;2022-07-15T13:33:32;1.45;;;1.17;;
30080;SDS011;16902;50.816;12.828;2022-07-15T13:38:34;2.28;;;1.13;;
30080;SDS011;16902;50.816;12.828;2022-07-15T13:43:36;2.28;;;1.30;;
30080;SDS011;16902;50.816;12.828;2022-07-15T13:48:37;2.00;;;1.20;;
30080;SDS011;16902;50.816;12.828;2022-07-15T13:53:39;1.55;;;0.90;;
30080;SDS011;16902;50.816;12.828;2022-07-15T13:58:42;2.60;;;1.02;;
30080;SDS011;16902;50.816;12.828;2022-07-15T14:03:44;2.72;;;1.02;;
30080;SDS011;16902;50.816;12.828;2022-07-15T14:08:46;1.90;;;1.15;;
30080;SDS011;16902;50.816;12.828;2022-07-15T14:13:48;3.28;;;1.10;;
30080;SDS011;16902;50.816;12.828;2022-07-15T14:18:50;1.98;;;1.08;;
30080;SDS011;16902;50.816;12.828;2022-07-15T14:23:52;1.85;;;0.88;;
30080;SDS011;16902;50.816;12.828;2022-07-15T14:28:54;1.52;;;1.10;;
30080;SDS011;16902;50.816;12.828;2022-07-15T14:33:58;1.42;;;0.98;;
30080;SDS011;16902;50.816;12.828;2022-07-15T14:39:00;1.40;;;0.80;;
30080;SDS011;16902;50.816;12.828;2022-07-15T14:44:02;1.65;;;1.00;;
30080;SDS011;16902;50.816;12.828;2022-07-15T14:49:05;1.58;;;0.90;;
30080;SDS011;16902;50.816;12.828;2022-07-15T14:54:07;1.30;;;1.08;;
30080;SDS011;16902;50.816;12.828;2022-07-15T14:59:11;3.55;;;1.20;;
30080;SDS011;16902;50.816;12.828;2022-07-15T15:04:13;4.80;;;1.17;;
30080;SDS011;16902;50.816;12.828;2022-07-15T15:09:14;2.10;;;1.15;;
30080;SDS011;16902;50.816;12.828;2022-07-15T15:14:16;3.17;;;1.38;;
30080;SDS011;16902;50.816;12.828;2022-07-15T15:19:19;1.90;;;1.20;;
30080;SDS011;16902;50.816;12.828;2022-07-15T15:24:21;3.33;;;1.10;;
30080;SDS011;16902;50.816;12.828;2022-07-15T15:29:23;4.82;;;1.20;;
30080;SDS011;16902;50.816;12.828;2022-07-15T15:34:26;1.17;;;0.98;;
30080;SDS011;16902;50.816;12.828;2022-07-15T15:39:31;2.35;;;1.10;;
30080;SDS011;16902;50.816;12.828;2022-07-15T15:44:33;1.58;;;1.05;;
30080;SDS011;16902;50.816;12.828;2022-07-15T15:49:36;3.08;;;1.15;;
30080;SDS011;16902;50.816;12.828;2022-07-15T15:54:38;1.55;;;1.00;;
30080;SDS011;16902;50.816;12.828;2022-07-15T15:59:39;1.98;;;0.98;;
30080;SDS011;16902;50.816;12.828;2022-07-15T16:04:41;2.22;;;1.20;;
30080;SDS011;16902;50.816;12.828;2022-07-15T16:10:04;2.50;;;1.17;;
30080;SDS011;16902;50.816;12.828;2022-07-15T16:15:06;2.13;;;1.40;;
30080;SDS011;16902;50.816;12.828;2022-07-15T16:20:09;2.17;;;1.17;;
30080;SDS011;16902;50.816;12.828;2022-07-15T16:25:11;2.90;;;1.25;;
30080;SDS011;16902;50.816;12.828;2022-07-15T16:30:13;3.33;;;1.15;;
30080;SDS011;16902;50.816;12.828;2022-07-15T16:35:23;2.78;;;1.60;;
30080;SDS011;16902;50.816;12.828;2022-07-15T16:40:27;2.97;;;1.50;;
30080;SDS011;16902;50.816;12.828;2022-07-15T16:45:30;2.20;;;1.48;;
30080;SDS011;16902;50.816;12.828;2022-07-15T16:50:33;2.00;;;1.30;;
30080;SDS011;16902;50.816;12.828;2022-07-15T16:55:35;4.43;;;1.50;;
30080;SDS011;16902;50.816;12.828;2022-07-15T17:00:37;4.43;;;1.65;;
30080;SDS011;16902;50.816;12.828;2022-07-15T17:05:39;2.55;;;1.58;;
30080;SDS011;16902;50.816;12.828;2022-07-15T17:10:45;3.80;;;1.23;;
30080;SDS011;16902;50.816;12.828;2022-07-15T17:15:47;2.50;;;1.40;;
30080;SDS011;16902;50.816;12.828;2022-07-15T17:20:49;3.42;;;1.58;;
30080;SDS011;16902;50.816;12.828;2022-07-15T17:25:51;2.58;;;1.48;;
30080;SDS011;16902;50.816;12.828;2022-07-15T17:30:53;4.28;;;1.70;;
30080;SDS011;16902;50.816;12.828;2022-07-15T17:35:55;2.10;;;1.60;;
30080;SDS011;16902;50.816;12.828;2022-07-15T17:40:58;4.82;;;1.52;;
30080;SDS011;16902;50.816;12.828;2022-07-15T17:46:04;4.03;;;1.70;;
30080;SDS011;16902;50.816;12.828;2022-07-15T17:51:08;2.67;;;1.65;;
30080;SDS011;16902;50.816;12.828;2022-07-15T17:56:09;2.45;;;1.67;;
30080;SDS011;16902;50.816;12.828;2022-07-15T18:01:12;2.08;;;1.73;;
30080;SDS011;16902;50.816;12.828;2022-07-15T18:06:14;1.85;;;1.20;;
30080;SDS011;16902;50.816;12.828;2022-07-15T18:11:16;4.65;;;1.50;;
30080;SDS011;16902;50.816;12.828;2022-07-15T18:16:18;6.55;;;1.80;;
30080;SDS011;16902;50.816;12.828;2022-07-15T18:21:20;4.00;;;1.92;;
30080;SDS011;16902;50.816;12.828;2022-07-15T18:26:22;3.05;;;1.52;;
30080;SDS011;16902;50.816;12.828;2022-07-15T18:31:25;5.10;;;1.75;;
30080;SDS011;16902;50.816;12.828;2022-07-15T18:36:27;3.40;;;1.65;;
30080;SDS011;16902;50.816;12.828;2022-07-15T18:41:30;1.83;;;1.30;;
30080;SDS011;16902;50.816;12.828;2022-07-15T18:46:32;4.10;;;1.80;;
30080;SDS011;16902;50.816;12.828;2022-07-15T18:51:34;3.75;;;2.00;;
30080;SDS011;16902;50.816;12.828;2022-07-15T18:56:36;2.80;;;1.58;;
30080;SDS011;16902;50.816;12.828;2022-07-15T19:01:39;2.17;;;1.52;;
30080;SDS011;16902;50.816;12.828;2022-07-15T19:06:42;3.20;;;1.90;;
30080;SDS011;16902;50.816;12.828;2022-07-15T19:11:45;5.55;;;3.22;;
30080;SDS011;16902;50.816;12.828;2022-07-15T19:16:47;4.78;;;3.38;;
30080;SDS011;16902;50.816;12.828;2022-07-15T19:21:48;9.63;;;5.63;;
30080;SDS011;16902;50.816;12.828;2022-07-15T19:26:50;6.97;;;5.07;;
30080;SDS011;16902;50.816;12.828;2022-07-15T19:31:52;5.50;;;4.40;;
30080;SDS011;16902;50.816;12.828;2022-07-15T19:36:54;8.88;;;4.07;;
30080;SDS011;16902;50.816;12.828;2022-07-15T19:41:57;5.57;;;4.28;;
30080;SDS011;16902;50.816;12.828;2022-07-15T19:47:01;5.50;;;3.83;;
30080;SDS011;16902;50.816;12.828;2022-07-15T19:52:04;4.15;;;3.75;;
30080;SDS011;16902;50.816;12.828;2022-07-15T19:57:06;3.72;;;3.28;;
30080;SDS011;16902;50.816;12.828;2022-07-15T20:02:08;7.45;;;5.45;;
30080;SDS011;16902;50.816;12.828;2022-07-15T20:07:10;11.48;;;8.43;;
30080;SDS011;16902;50.816;12.828;2022-07-15T20:12:12;8.00;;;7.20;;
30080;SDS011;16902;50.816;12.828;2022-07-15T20:17:14;8.90;;;6.10;;
30080;SDS011;16902;50.816;12.828;2022-07-15T20:22:15;7.35;;;5.68;;
30080;SDS011;16902;50.816;12.828;2022-07-15T20:27:17;11.75;;;8.82;;
30080;SDS011;16902;50.816;12.828;2022-07-15T20:32:19;9.35;;;8.43;;
30080;SDS011;16902;50.816;12.828;2022-07-15T20:37:21;10.13;;;5.28;;
30080;SDS011;16902;50.816;12.828;2022-07-15T20:42:23;9.65;;;5.97;;
30080;SDS011;16902;50.816;12.828;2022-07-15T20:47:25;5.85;;;3.45;;
30080;SDS011;16902;50.816;12.828;2022-07-15T20:52:28;6.00;;;5.15;;
30080;SDS011;16902;50.816;12.828;2022-07-15T20:57:30;5.15;;;3.67;;
30080;SDS011;16902;50.816;12.828;2022-07-15T21:02:32;4.68;;;3.80;;
30080;SDS011;16902;50.816;12.828;2022-07-15T21:07:36;6.32;;;4.35;;
30080;SDS011;16902;50.816;12.828;2022-07-15T21:12:38;5.60;;;4.45;;
30080;SDS011;16902;50.816;12.828;2022-07-15T21:17:40;6.63;;;4.32;;
30080;SDS011;16902;50.816;12.828;2022-07-15T21:22:42;8.18;;;5.63;;
30080;SDS011;16902;50.816;12.828;2022-07-15T21:27:44;6.68;;;3.60;;
30080;SDS011;16902;50.816;12.828;2022-07-15T21:32:46;3.47;;;2.60;;
30080;SDS011;16902;50.816;12.828;2022-07-15T21:37:48;3.95;;;2.10;;
30080;SDS011;16902;50.816;12.828;2022-07-15T21:42:56;3.63;;;2.40;;
30080;SDS011;16902;50.816;12.828;2022-07-15T21:47:59;6.20;;;2.90;;
30080;SDS011;16902;50.816;12.828;2022-07-15T21:53:02;7.00;;;4.35;;
30080;SDS011;16902;50.816;12.828;2022-07-15T21:58:04;4.53;;;3.60;;
30080;SDS011;16902;50.816;12.828;2022-07-15T22:03:12;5.43;;;3.20;;
30080;SDS011;16902;50.816;12.828;2022-07-15T22:08:15;2.97;;;2.67;;
30080;SDS011;16902;50.816;12.828;2022-07-15T22:13:18;5.22;;;2.95;;
30080;SDS011;16902;50.816;12.828;2022-07-15T22:18:20;6.22;;;2.45;;
30080;SDS011;16902;50.816;12.828;2022-07-15T22:23:22;3.20;;;2.20;;
30080;SDS011;16902;50.816;12.828;2022-07-15T22:28:24;3.92;;;2.30;;
30080;SDS011;16902;50.816;12.828;2022-07-15T22:33:26;4.30;;;2.20;;
30080;SDS011;16902;50.816;12.828;2022-07-15T22:38:28;3.20;;;2.05;;
30080;SDS011;16902;50.816;12.828;2022-07-15T22:43:31;3.60;;;2.17;;
30080;SDS011;16902;50.816;12.828;2022-07-15T22:48:33;2.05;;;1.90;;
30080;SDS011;16902;50.816;12.828;2022-07-15T22:53:35;1.98;;;1.88;;
30080;SDS011;16902;50.816;12.828;2022-07-15T22:58:37;2.33;;;2.08;;
30080;SDS011;16902;50.816;12.828;2022-07-15T23:03:43;3.88;;;2.47;;
30080;SDS011;16902;50.816;12.828;2022-07-15T23:08:45;4.97;;;2.30;;
30080;SDS011;16902;50.816;12.828;2022-07-15T23:13:47;5.28;;;2.33;;
30080;SDS011;16902;50.816;12.828;2022-07-15T23:18:48;3.97;;;2.67;;
30080;SDS011;16902;50.816;12.828;2022-07-15T23:23:51;3.67;;;2.60;;
30080;SDS011;16902;50.816;12.828;2022-07-15T23:28:53;3.58;;;2.40;;
30080;SDS011;16902;50.816;12.828;2022-07-15T23:33:54;4.90;;;3.28;;
30080;SDS011;16902;50.816;12.828;2022-07-15T23:38:59;5.40;;;3.00;;
30080;SDS011;16902;50.816;12.828;2022-07-15T23:44:01;5.88;;;2.60;;
30080;SDS011;16902;50.816;12.828;2022-07-15T23:49:03;4.30;;;2.72;;
30080;SDS011;16902;50.816;12.828;2022-07-15T23:54:06;3.30;;;3.00;;
30080;SDS011;16902;50.816;12.828;2022-07-15T23:59:08;4.45;;;3.35;;
